createdAt,value
2019-01-24T00:01:57.399Z,61.90
2019-01-24T00:04:27.737Z,61.80
2019-01-24T00:06:58.411Z,62.00
2019-01-24T00:09:29.147Z,62.10
2019-01-24T00:11:59.857Z,62.10
2019-01-24T00:14:30.328Z,62.10
2019-01-24T00:17:01.680Z,62.20
2019-01-24T00:19:33.254Z,62.10
2019-01-24T00:22:03.731Z,62.20
2019-01-24T00:24:34.569Z,62.20
2019-01-24T00:27:05.093Z,62.30
2019-01-24T00:29:35.398Z,62.40
2019-01-24T00:32:05.723Z,62.30
2019-01-24T00:34:36.227Z,62.30
2019-01-24T00:37:06.652Z,62.40
2019-01-24T00:39:39.533Z,62.30
2019-01-24T00:42:09.956Z,62.40
2019-01-24T00:44:40.331Z,62.50
2019-01-24T00:47:12.667Z,62.60
2019-01-24T00:49:43.492Z,62.70
2019-01-24T00:52:16.027Z,62.70
2019-01-24T00:54:48.382Z,62.70
2019-01-24T00:57:19.355Z,63.10
2019-01-24T00:59:49.772Z,62.70
2019-01-24T01:02:20.244Z,62.80
2019-01-24T01:04:50.753Z,62.90
2019-01-24T01:07:21.286Z,63.00
2019-01-24T01:09:53.095Z,63.00
2019-01-24T01:12:23.750Z,63.10
2019-01-24T01:14:54.151Z,63.20
2019-01-24T01:17:24.753Z,63.30
2019-01-24T01:19:55.212Z,63.40
2019-01-24T01:22:28.345Z,63.40
2019-01-24T01:24:58.690Z,63.50
2019-01-24T01:27:30.525Z,63.50
2019-01-24T01:30:00.985Z,63.60
2019-01-24T01:32:31.523Z,63.50
2019-01-24T01:35:01.909Z,64.30
2019-01-24T01:37:32.324Z,63.60
2019-01-24T01:40:04.370Z,63.80
2019-01-24T01:42:34.699Z,63.90
2019-01-24T01:45:06.717Z,63.90
2019-01-24T01:47:37.071Z,63.90
2019-01-24T01:50:10.001Z,63.90
2019-01-24T01:52:40.352Z,63.90
2019-01-24T01:55:11.235Z,63.90
2019-01-24T01:57:41.710Z,64.00
2019-01-24T02:00:17.474Z,64.30
2019-01-24T02:02:48.104Z,64.40
2019-01-24T02:05:19.084Z,64.60
2019-01-24T02:07:49.994Z,64.80
2019-01-24T02:10:23.384Z,64.90
2019-01-24T02:12:54.255Z,64.60
2019-01-24T02:15:25.065Z,64.60
2019-01-24T02:17:55.883Z,64.50
2019-01-24T02:20:27.372Z,64.40
2019-01-24T02:22:58.195Z,64.50
2019-01-24T02:25:28.537Z,64.50
2019-01-24T02:27:58.989Z,64.50
2019-01-24T02:30:30.756Z,64.60
2019-01-24T02:33:01.163Z,64.50
2019-01-24T02:35:31.477Z,64.50
2019-01-24T02:38:02.131Z,64.30
2019-01-24T02:40:32.481Z,64.20
2019-01-24T02:43:02.885Z,64.30
2019-01-24T02:45:33.912Z,64.50
2019-01-24T02:48:07.426Z,64.50
2019-01-24T02:50:38.048Z,64.50
2019-01-24T02:53:08.618Z,64.50
2019-01-24T02:55:39.130Z,64.70
2019-01-24T02:58:09.649Z,64.80
2019-01-24T03:00:40.127Z,64.90
2019-01-24T03:03:10.695Z,64.80
2019-01-24T03:05:41.242Z,64.80
2019-01-24T03:08:13.772Z,65.00
2019-01-24T03:10:46.339Z,65.10
2019-01-24T03:13:16.631Z,65.30
2019-01-24T03:15:48.881Z,65.00
2019-01-24T03:18:21.376Z,65.20
2019-01-24T03:20:52.203Z,65.30
2019-01-24T03:23:23.037Z,65.20
2019-01-24T03:25:53.381Z,65.30
2019-01-24T03:28:25.414Z,65.30
2019-01-24T03:30:55.919Z,65.40
2019-01-24T03:33:27.030Z,65.30
2019-01-24T03:35:57.364Z,65.40
2019-01-24T03:38:27.801Z,65.40
2019-01-24T03:40:58.221Z,65.40
2019-01-24T03:43:28.617Z,65.50
2019-01-24T03:45:59.336Z,65.50
2019-01-24T03:48:29.720Z,65.60
2019-01-24T03:51:00.517Z,65.60
2019-01-24T03:53:36.423Z,65.60
2019-01-24T03:56:09.771Z,65.70
2019-01-24T03:58:41.887Z,65.70
2019-01-24T04:01:12.401Z,65.80
2019-01-24T04:03:42.847Z,65.70
2019-01-24T04:06:13.269Z,65.70
2019-01-24T04:08:45.819Z,65.70
2019-01-24T04:11:16.278Z,65.80
2019-01-24T04:13:49.481Z,65.90
2019-01-24T04:16:19.856Z,65.90
2019-01-24T04:18:52.505Z,65.90
2019-01-24T04:21:40.240Z,65.90
2019-01-24T04:24:10.854Z,65.70
2019-01-24T04:26:45.610Z,65.60
2019-01-24T04:29:16.085Z,65.60
2019-01-24T04:31:46.574Z,65.50
2019-01-24T04:34:17.589Z,65.60
2019-01-24T04:36:48.402Z,65.40
2019-01-24T04:39:19.231Z,65.40
2019-01-24T04:41:50.192Z,65.30
2019-01-24T04:44:22.361Z,65.30
2019-01-24T04:46:52.845Z,65.20
2019-01-24T04:49:23.646Z,65.20
2019-01-24T04:51:54.035Z,65.20
2019-01-24T04:54:24.599Z,65.30
2019-01-24T04:56:55.111Z,65.20
2019-01-24T04:59:26.296Z,65.10
2019-01-24T05:01:56.701Z,65.00
2019-01-24T05:04:29.334Z,65.00
2019-01-24T05:07:01.419Z,64.90
2019-01-24T05:09:31.840Z,65.00
2019-01-24T05:12:02.175Z,64.80
2019-01-24T05:14:32.916Z,64.90
2019-01-24T05:17:03.342Z,64.80
2019-01-24T05:19:37.050Z,64.80
2019-01-24T05:22:08.889Z,64.80
2019-01-24T05:24:40.869Z,64.80
2019-01-24T05:27:11.327Z,64.60
2019-01-24T05:29:41.835Z,64.70
2019-01-24T05:32:12.238Z,64.70
2019-01-24T05:34:42.938Z,64.70
2019-01-24T05:37:13.405Z,64.40
2019-01-24T05:39:43.830Z,64.40
2019-01-24T05:42:15.757Z,64.60
2019-01-24T05:44:46.117Z,64.40
2019-01-24T05:47:16.470Z,64.50
2019-01-24T05:49:46.795Z,64.40
2019-01-24T05:52:19.683Z,64.50
2019-01-24T05:54:49.733Z,64.40
2019-01-24T05:57:20.082Z,64.60
2019-01-24T05:59:50.405Z,64.70
2019-01-24T06:02:20.732Z,64.60
2019-01-24T06:05:33.036Z,64.60
2019-01-24T06:07:35.254Z,64.60
2019-01-24T06:10:13.696Z,64.70
2019-01-24T06:12:44.136Z,64.70
2019-01-24T06:15:16.089Z,64.70
2019-01-24T06:17:46.635Z,64.60
2019-01-24T06:20:17.147Z,64.60
2019-01-24T06:22:56.020Z,64.50
2019-01-24T06:25:28.285Z,64.50
2019-01-24T06:27:59.096Z,64.40
2019-01-24T06:30:35.008Z,64.30
2019-01-24T06:33:11.748Z,64.10
2019-01-24T06:35:53.035Z,64.10
2019-01-24T06:38:30.741Z,64.20
2019-01-24T06:41:10.699Z,64.00
2019-01-24T06:43:41.677Z,63.90
2019-01-24T06:46:11.768Z,63.90
2019-01-24T06:48:44.004Z,64.10
2019-01-24T06:51:15.756Z,64.20
2019-01-24T06:53:46.249Z,64.00
2019-01-24T06:56:16.631Z,64.10
2019-01-24T06:58:50.728Z,64.00
2019-01-24T07:01:23.611Z,63.90
2019-01-24T07:03:56.646Z,64.20
2019-01-24T07:06:28.607Z,64.20
2019-01-24T07:09:04.363Z,64.30
2019-01-24T07:11:36.170Z,64.20
2019-01-24T07:14:08.868Z,64.10
2019-01-24T07:16:42.728Z,64.10
2019-01-24T07:19:15.064Z,64.10
2019-01-24T07:22:02.008Z,64.20
2019-01-24T07:24:32.558Z,64.00
2019-01-24T07:27:04.751Z,63.80
2019-01-24T07:29:36.625Z,63.90
2019-01-24T07:32:09.970Z,64.00
2019-01-24T07:34:56.436Z,63.80
2019-01-24T07:37:27.989Z,63.90
2019-01-24T07:40:24.020Z,63.80
2019-01-24T07:42:56.616Z,63.80
2019-01-24T07:45:48.854Z,63.70
2019-01-24T07:48:24.869Z,63.50
2019-01-24T07:50:55.361Z,63.60
2019-01-24T07:53:48.278Z,63.60
2019-01-24T08:00:12.394Z,63.40
2019-01-24T08:03:25.352Z,63.20
2019-01-24T08:06:43.578Z,63.20
2019-01-24T08:09:13.999Z,63.20
2019-01-24T08:12:38.281Z,63.20
2019-01-24T08:15:25.470Z,63.40
2019-01-24T08:19:01.694Z,63.30
2019-01-24T08:29:37.628Z,63.20
2019-01-24T08:36:15.732Z,63.50
2019-01-24T08:39:09.661Z,63.30
2019-01-24T08:41:44.026Z,63.20
2019-01-24T08:44:14.567Z,63.30
2019-01-24T08:46:45.211Z,64.00
2019-01-24T08:49:16.370Z,63.40
2019-01-24T08:51:50.532Z,63.60
2019-01-24T08:54:21.046Z,63.40
2019-01-24T08:57:05.457Z,63.40
2019-01-24T08:59:37.755Z,63.10
2019-01-24T09:06:29.762Z,63.20
2019-01-24T09:12:50.426Z,62.80
2019-01-24T09:15:49.467Z,62.70
2019-01-24T09:19:14.161Z,62.80
2019-01-24T09:21:47.666Z,62.70
2019-01-24T09:24:30.262Z,62.60
2019-01-24T09:28:20.762Z,62.70
2019-01-24T09:31:37.525Z,62.70
2019-01-24T09:41:53.870Z,63.20
2019-01-24T09:49:54.345Z,63.40
2019-01-24T10:09:03.343Z,63.20
2019-01-24T10:13:52.542Z,63.30
2019-01-24T10:15:16.217Z,63.50
2019-01-24T10:18:21.530Z,63.20
2019-01-24T10:21:14.698Z,63.20
2019-01-24T10:23:49.976Z,63.30
2019-01-24T10:27:25.841Z,63.10
2019-01-24T10:30:07.930Z,62.90
2019-01-24T10:32:45.499Z,62.80
2019-01-24T10:35:29.296Z,62.70
2019-01-24T10:39:16.100Z,62.50
2019-01-24T10:41:57.728Z,62.60
2019-01-24T10:44:45.792Z,62.60
2019-01-24T10:47:32.459Z,62.60
2019-01-24T10:50:15.600Z,62.50
2019-01-24T10:53:41.353Z,63.20
2019-01-24T11:00:45.189Z,62.50
2019-01-24T11:03:22.181Z,62.50
2019-01-24T11:05:56.940Z,62.60
2019-01-24T11:08:35.092Z,63.20
2019-01-24T11:11:17.554Z,62.60
2019-01-24T11:13:49.028Z,62.70
2019-01-24T11:16:38.690Z,62.60
2019-01-24T11:19:07.723Z,62.60
2019-01-24T11:21:40.601Z,62.50
2019-01-24T11:24:11.563Z,62.40
2019-01-24T11:26:45.823Z,62.00
2019-01-24T11:29:20.308Z,62.20
2019-01-24T11:31:53.564Z,62.10
2019-01-24T11:34:26.267Z,62.20
2019-01-24T11:37:06.472Z,62.30
2019-01-24T11:39:40.926Z,62.40
2019-01-24T11:42:13.911Z,62.40
2019-01-24T11:44:45.086Z,62.40
2019-01-24T11:47:20.633Z,62.40
2019-01-24T11:50:02.694Z,62.40
2019-01-24T11:52:33.758Z,62.30
2019-01-24T11:55:13.282Z,62.40
2019-01-24T11:57:48.303Z,62.50
2019-01-24T12:00:26.535Z,62.30
2019-01-24T12:03:34.116Z,62.30
2019-01-24T12:06:33.572Z,61.90
2019-01-24T12:09:16.692Z,62.00
2019-01-24T12:11:56.596Z,61.80
2019-01-24T12:14:28.288Z,61.80
2019-01-24T12:17:04.430Z,61.80
2019-01-24T12:20:05.319Z,61.90
2019-01-24T12:22:37.830Z,61.70
2019-01-24T12:25:55.162Z,61.70
2019-01-24T12:28:25.743Z,61.40
2019-01-24T12:30:58.569Z,61.20
2019-01-24T12:33:42.306Z,61.10
2019-01-24T12:36:14.036Z,61.10
2019-01-24T12:38:50.212Z,61.00
2019-01-24T12:41:46.525Z,60.90
2019-01-24T12:44:19.133Z,60.90
2019-01-24T12:46:50.147Z,60.90
2019-01-24T12:49:21.310Z,60.80
2019-01-24T12:53:22.297Z,61.30
2019-01-24T13:00:49.917Z,60.40
2019-01-24T13:03:27.970Z,60.20
2019-01-24T13:05:59.534Z,60.10
2019-01-24T13:08:38.779Z,60.10
2019-01-24T13:11:15.272Z,60.00
2019-01-24T13:13:50.808Z,59.90
2019-01-24T13:16:24.305Z,60.10
2019-01-24T13:19:02.971Z,60.20
2019-01-24T13:21:54.177Z,60.30
2019-01-24T13:24:45.805Z,60.50
2019-01-24T13:31:09.515Z,60.10
2019-01-24T13:34:16.142Z,60.50
2019-01-24T13:37:51.827Z,60.70
2019-01-24T13:40:34.069Z,60.50
2019-01-24T13:43:05.182Z,60.60
2019-01-24T13:45:38.826Z,60.60
2019-01-24T13:48:11.748Z,60.60
2019-01-24T13:51:01.089Z,60.60
2019-01-24T13:53:33.919Z,60.60
2019-01-24T13:56:04.600Z,60.60
2019-01-24T13:58:41.174Z,60.50
2019-01-24T14:01:11.895Z,60.50
2019-01-24T14:04:03.862Z,60.70
2019-01-24T14:06:35.808Z,60.50
2019-01-24T14:09:35.962Z,60.50
2019-01-24T14:12:08.635Z,60.50
2019-01-24T14:14:45.511Z,60.20
2019-01-24T14:17:38.249Z,60.40
2019-01-24T14:20:56.276Z,60.40
2019-01-24T14:24:19.536Z,60.40
2019-01-24T14:28:17.429Z,60.30
2019-01-24T14:32:29.945Z,60.40
2019-01-24T14:35:06.829Z,60.40
2019-01-24T14:38:43.326Z,60.20
2019-01-24T14:54:52.041Z,61.00
2019-01-24T14:58:08.796Z,60.10
2019-01-24T15:04:53.319Z,60.30
2019-01-24T15:07:47.151Z,60.30
2019-01-24T15:14:41.488Z,60.10
2019-01-24T15:21:47.865Z,60.10
2019-01-24T15:25:25.951Z,60.10
2019-01-24T15:27:55.452Z,60.20
2019-01-24T15:33:55.016Z,60.10
2019-01-24T15:36:28.841Z,60.10
2019-01-24T15:39:16.066Z,60.10
2019-01-24T15:41:48.976Z,60.10
2019-01-24T15:44:23.639Z,60.10
2019-01-24T15:46:54.870Z,60.10
2019-01-24T15:49:27.631Z,60.00
2019-01-24T15:51:58.405Z,60.10
2019-01-24T15:54:29.550Z,60.30
2019-01-24T15:57:10.317Z,60.10
2019-01-24T15:59:53.091Z,60.20
2019-01-24T16:02:23.777Z,60.50
2019-01-24T16:04:57.485Z,60.60
2019-01-24T16:08:31.266Z,60.60
2019-01-24T16:11:27.209Z,60.50
2019-01-24T16:14:01.059Z,60.70
2019-01-24T16:16:34.162Z,60.70
2019-01-24T16:19:05.571Z,60.80
2019-01-24T16:21:36.667Z,60.70
2019-01-24T16:24:07.915Z,60.90
2019-01-24T16:26:38.929Z,61.00
2019-01-24T16:29:14.499Z,61.00
2019-01-24T16:31:47.590Z,61.10
2019-01-24T16:34:17.967Z,61.10
2019-01-24T16:36:50.279Z,61.20
2019-01-24T16:39:29.805Z,61.20
2019-01-24T16:42:02.048Z,61.20
2019-01-24T16:44:56.586Z,61.00
2019-01-24T16:47:20.840Z,61.10
2019-01-24T16:49:55.373Z,61.40
2019-01-24T16:52:26.148Z,61.60
2019-01-24T16:55:04.461Z,61.60
2019-01-24T16:57:41.670Z,61.70
2019-01-24T17:00:26.362Z,61.70
2019-01-24T17:03:01.237Z,61.70
2019-01-24T17:06:48.879Z,61.70
2019-01-24T17:09:23.512Z,61.80
2019-01-24T17:12:06.263Z,61.60
2019-01-24T17:14:50.472Z,61.60
2019-01-24T17:17:21.017Z,61.50
2019-01-24T17:19:51.662Z,61.60
2019-01-24T17:22:25.322Z,61.70
2019-01-24T17:24:55.953Z,61.70
2019-01-24T17:27:27.092Z,61.70
2019-01-24T17:29:59.307Z,61.50
2019-01-24T17:32:37.983Z,61.50
2019-01-24T17:35:10.164Z,61.70
2019-01-24T17:37:43.695Z,62.70
2019-01-24T17:40:29.598Z,61.90
2019-01-24T17:43:07.477Z,61.70
2019-01-24T17:45:38.684Z,61.70
2019-01-24T17:48:09.929Z,61.70
2019-01-24T17:50:40.768Z,61.70
2019-01-24T17:53:12.454Z,61.70
2019-01-24T17:55:46.926Z,61.70
2019-01-24T17:58:19.183Z,61.70
2019-01-24T18:01:03.238Z,61.70
2019-01-24T18:03:35.799Z,61.70
2019-01-24T18:06:07.116Z,61.70
2019-01-24T18:08:40.442Z,61.70
2019-01-24T18:11:14.118Z,61.70
2019-01-24T18:13:48.710Z,61.70
2019-01-24T18:16:31.514Z,61.70
2019-01-24T18:19:02.209Z,61.70
2019-01-24T18:21:33.096Z,61.60
2019-01-24T18:24:18.689Z,61.60
2019-01-24T18:27:07.345Z,61.50
2019-01-24T18:29:56.577Z,61.50
2019-01-24T18:32:31.436Z,61.60
2019-01-24T18:35:05.836Z,61.50
2019-01-24T18:37:36.288Z,61.50
2019-01-24T18:40:16.420Z,61.70
2019-01-24T18:42:49.142Z,61.70
2019-01-24T18:45:33.759Z,61.50
2019-01-24T18:48:04.382Z,61.50
2019-01-24T18:50:37.772Z,61.50
2019-01-24T18:53:09.883Z,61.60
2019-01-24T18:55:41.446Z,61.70
2019-01-24T18:58:17.647Z,61.80
2019-01-24T19:00:51.112Z,62.10
2019-01-24T19:03:37.496Z,62.20
2019-01-24T19:06:11.179Z,62.20
2019-01-24T19:08:46.009Z,62.20
2019-01-24T19:11:21.772Z,62.20
2019-01-24T19:14:19.605Z,62.00
2019-01-24T19:17:23.367Z,62.00
2019-01-24T19:20:12.354Z,62.00
2019-01-24T19:22:45.438Z,61.90
2019-01-24T19:25:20.126Z,62.00
2019-01-24T19:27:51.141Z,61.90
2019-01-24T19:30:36.421Z,61.90
2019-01-24T19:33:45.251Z,62.10
2019-01-24T19:36:29.040Z,62.20
2019-01-24T19:38:59.744Z,62.20
2019-01-24T19:42:00.540Z,62.10
2019-01-24T19:44:42.440Z,62.00
2019-01-24T19:47:13.045Z,61.90
2019-01-24T19:49:51.598Z,62.60
2019-01-24T19:52:22.819Z,62.40
2019-01-24T19:54:56.316Z,61.80
2019-01-24T19:57:27.101Z,61.80
2019-01-24T19:59:57.811Z,61.80
2019-01-24T20:02:28.631Z,62.00
2019-01-24T20:05:09.628Z,62.00
2019-01-24T20:07:40.191Z,62.10
2019-01-24T20:10:15.395Z,62.00
2019-01-24T20:12:48.544Z,61.90
2019-01-24T20:15:25.294Z,62.00
2019-01-24T20:17:55.822Z,62.00
2019-01-24T20:20:29.241Z,62.20
2019-01-24T20:23:04.149Z,62.20
2019-01-24T20:25:35.140Z,62.30
2019-01-24T20:28:06.291Z,62.40
2019-01-24T20:30:39.582Z,62.40
2019-01-24T20:33:10.650Z,62.50
2019-01-24T20:35:57.743Z,62.40
2019-01-24T20:38:31.163Z,62.40
2019-01-24T20:41:09.516Z,62.40
2019-01-24T20:43:41.961Z,62.40
2019-01-24T20:46:15.386Z,62.50
2019-01-24T20:48:46.414Z,62.50
2019-01-24T20:51:20.024Z,62.70
2019-01-24T20:53:56.364Z,62.40
2019-01-24T20:56:26.959Z,62.60
2019-01-24T20:58:57.973Z,62.60
2019-01-24T21:01:28.510Z,62.60
2019-01-24T21:04:01.098Z,62.50
2019-01-24T21:06:56.331Z,62.60
2019-01-24T21:09:27.428Z,62.60
2019-01-24T21:12:01.345Z,62.60
2019-01-24T21:14:34.999Z,62.70
2019-01-24T21:17:08.887Z,62.60
2019-01-24T21:19:40.361Z,62.60
2019-01-24T21:22:11.455Z,62.60
2019-01-24T21:24:42.187Z,62.50
2019-01-24T21:27:15.319Z,62.60
2019-01-24T21:29:52.922Z,62.60
2019-01-24T21:32:23.155Z,62.70
2019-01-24T21:34:54.705Z,62.60
2019-01-24T21:37:50.866Z,62.60
2019-01-24T21:40:28.513Z,62.80
2019-01-24T21:43:35.357Z,62.70
2019-01-24T21:46:06.480Z,62.70
2019-01-24T21:48:37.249Z,62.70
2019-01-24T21:51:12.337Z,62.70
2019-01-24T21:53:55.551Z,63.70
2019-01-24T21:56:32.812Z,62.90
2019-01-24T21:59:03.757Z,63.00
2019-01-24T22:01:34.600Z,62.90
2019-01-24T22:04:11.421Z,63.00
2019-01-24T22:06:45.092Z,63.00
2019-01-24T22:09:15.688Z,63.20
2019-01-24T22:11:46.515Z,63.30
2019-01-24T22:14:19.418Z,63.40
2019-01-24T22:16:52.886Z,63.50
2019-01-24T22:19:23.442Z,63.60
2019-01-24T22:21:54.905Z,63.60
2019-01-24T22:24:25.424Z,63.70
2019-01-24T22:26:58.984Z,63.80
2019-01-24T22:29:30.722Z,63.80
2019-01-24T22:32:02.427Z,63.80
2019-01-24T22:34:35.510Z,63.90
2019-01-24T22:37:08.551Z,63.90
2019-01-24T22:39:45.100Z,63.90
2019-01-24T22:42:16.987Z,64.00
2019-01-24T22:44:51.198Z,63.90
2019-01-24T22:47:29.652Z,63.90
2019-01-24T22:50:00.490Z,64.00
2019-01-24T22:52:42.105Z,64.30
2019-01-24T22:55:14.373Z,64.10
2019-01-24T22:57:48.343Z,64.20
2019-01-24T23:00:47.410Z,64.30
2019-01-24T23:03:26.701Z,65.20
2019-01-24T23:05:57.801Z,64.30
2019-01-24T23:08:36.320Z,64.40
2019-01-24T23:11:08.623Z,64.40
2019-01-24T23:13:39.365Z,64.40
2019-01-24T23:16:09.779Z,64.40
2019-01-24T23:18:40.725Z,64.50
2019-01-24T23:21:13.480Z,64.50
2019-01-24T23:23:43.847Z,64.60
2019-01-24T23:26:15.026Z,64.60
2019-01-24T23:28:45.616Z,64.70
2019-01-24T23:31:16.090Z,65.00
2019-01-24T23:33:48.476Z,65.00
2019-01-24T23:36:29.711Z,65.00
2019-01-24T23:38:58.627Z,65.10
2019-01-24T23:41:43.395Z,65.10
2019-01-24T23:44:16.658Z,65.30
2019-01-24T23:46:48.848Z,65.20
2019-01-24T23:49:20.603Z,65.10
2019-01-24T23:51:54.662Z,65.20
2019-01-24T23:54:26.831Z,65.10
2019-01-24T23:56:57.560Z,65.00
2019-01-24T23:59:30.199Z,65.20
